Aeroporto :
LOGIN :

Iscrizione | Disclaimer

   EN    FR    IT 

 










Sommario :    VFR   VFR Marginale   IFR   IFR Intensivo   IFR Molto Intensivo
Visibilità : 
Base nubi : 
>= 8 km
>= 3000ft
5 / 8 km
1000 / 3000 ft
1500m / 5 km
500 / 1000 ft
800 / 1500m
200 / 500 ft
< 800m
< 200 ft
Simboli :   Temporali  Nebbia  Neve Forte  Precipitazioni Forti  Vento > 20 kt
SIGMETs :   Varie  Temporali  Ghiacco  Turbolenza  Onda orograficha  Ceneri Vulcaniche






- Altitudine del aeroporto : 13 ft
- Codice IATA : SNR


LFRZ - St-Nazaire

ULTIMO METAR :
  • 142000Z AUTO 20018KT 9999 -RA FEW009/// BKN068/// OVC082/// ///TCU 11/11 Q1001 TEMPO 23015G25KT 2000 RA BECMG BKN030

METARs OBSOLETI :
  • 141930Z AUTO 19017KT 9999 -RA FEW006/// SCT036/// BKN072/// ///TCU 11/11 Q1001 TEMPO 23015G25KT 2000 RA BECMG BKN030
  • 141900Z AUTO 20016KT 9999 -RA SCT007/// BKN026/// BKN062/// ///TCU 11/11 Q1001 TEMPO 23015G25KT 2000 RA BKN008 BKN012
  • 141830Z AUTO 20017KT 9999 -RA ///TCU 11/11 Q1001 TEMPO 23015G25KT 2000 RA BKN008 BKN012
  • 141800Z AUTO 20016KT 9999 -RA FEW008/// BKN068/// BKN078/// ///TCU 11/10 Q1001 TEMPO 23015G25KT 2000 RA BKN008 BKN012
  • 141730Z AUTO 19015KT 9999 -RA BKN005 BKN010 BKN033 11/10 Q1001 TEMPO 23015G25KT 2000 RA

TAF TAF LFRZ
Valido dal 14 a 18 ore il 15 a 18 ore UTC


141700Z 1418/1518 22015KT 9999 -RA BKN030
TEMPO 1418/1421 23015G25KT 2000 RA BKN008 BKN012
TEMPO 1422/1501 24020G35KT
BECMG 1423/1501 NSW
TEMPO 1501/1518 4000 SHRA SCT012 BKN020



MetMap, La meteo Aeronautica in un colpo d'occhio ! - Copyright ORBIFLY Dicembre 2007 - Disclaimer

ORBIFLY MET'MAP TEAM :

Programmazione e sviluppo : Alexandra Zaïnal
Concezione : Baudouin d'Aumeries
Aiuto per la programmazione : Marc-Olivier Méhu
Supporto tecnico e logistico : Manuel Goepfert
Aiuto per la traduzione : Arnaldo La Scala

Contatto : metmap@orbifly.com




FONTI E CREDITI :

   NOAA